Aérodrome :
LOGIN :

S'inscrire | Disclaimer

   EN    FR    IT 

 










Légende :    VFR   VFR Marginal   IFR   IFR Intensif   IFR Très Intensif
Visi : 
Plafond : 
>= 8 km
>= 3000ft
5 à 8 km
1000 à 3000 ft
1500m à 5 km
500 à 1000 ft
800 à 1500m
200 à 500 ft
< 800m
< 200 ft
Symboles :   Orages  Brouillard  Fortes neiges  Fortes précipitations  Vent > 20 kt
SIGMETs :   Divers  Orages  Givrage  Turbulence  Onde Orograph.  Cendres Volcan.






- Altitude de l'aérodrome : 1906 ft
- Code IATA : INN


LOWI - Innsbruck

DERNIER METAR :
  • 280550Z 25003KT 200V280 9999 FEW004 BKN070 M04/M05 Q1013 NOSIG

METARs EXPIRÉS :
  • 280520Z 26003KT 210V280 8000 FEW070 BKN090 M05/M05 Q1014 NOSIG
  • 280450Z VRB02KT 8000 FEW070 BKN110 M05/M06 Q1014 NOSIG
  • 280420Z AUTO VRB02KT 3600 BR FEW120 M05/M05 Q1014
  • 280350Z AUTO VRB01KT 6000 FEW004 M06/M06 Q1014
  • 280320Z AUTO VRB02KT 7000 FEW004 M06/M06 Q1014
  • 280250Z AUTO 25002KT 2000 BR FEW004 M05/M06 Q1015

TAF TAF LOWI
Valide du 28 à 06h jusqu'au 29 à 06h UTC


280515Z 2806/2906 27003KT 9999 FEW001 SCT030 BKN060 TX01/2819Z TNM05/2806Z
TEMPO 2806/2809 -SN
FM280900 27007KT 4000 SN SCT010 BKN015
TEMPO 2809/2812 1200 VV010
BECMG 2812/2814 6000 RASN
BECMG 2814/2816 -RA SCT010 BKN060
TEMPO 2814/2821 27015G25KT SHRA
PROB40
TEMPO 2815/2820 29020G45KT
TEMPO 2822/2906 1200 BCFG



MET'MAP, la Météo Aéronautique d'un coup d'oeil ! - Copyright ORBIFLY Décembre 2007 - Disclaimer

ORBIFLY MET'MAP TEAM :

Programmation & Développement : Alexandra Zaïnal
Sur une idée originale de : Baudouin d'Aumeries
Assistance à la programmation : Marc-Olivier Méhu
Soutien technique & logistique : Manuel Goepfert

Contact : metmap@orbifly.com




SOURCES & CREDITS :

   NOAA